createdAt,value
2023-02-11T00:01:17.489Z,34.28
2023-02-11T00:04:06.545Z,34.88
2023-02-11T00:06:54.056Z,33.63
2023-02-11T00:09:44.160Z,34.38
2023-02-11T00:12:31.530Z,32.78
2023-02-11T00:15:18.684Z,33.22
2023-02-11T00:18:05.899Z,32.45
2023-02-11T00:20:55.304Z,35.97
2023-02-11T00:23:42.812Z,35.65
2023-02-11T00:26:33.098Z,34.25
2023-02-11T00:29:20.262Z,33.83
2023-02-11T00:32:09.021Z,35.78
2023-02-11T00:34:56.187Z,34.10
2023-02-11T00:37:43.368Z,37.38
2023-02-11T00:40:30.549Z,34.63
2023-02-11T00:43:17.772Z,35.88
2023-02-11T00:46:06.502Z,42.28
2023-02-11T00:48:57.626Z,38.25
2023-02-11T00:51:44.829Z,37.08
2023-02-11T00:54:32.037Z,39.08
2023-02-11T00:57:20.250Z,36.63
2023-02-11T01:00:11.182Z,38.65
2023-02-11T01:02:58.388Z,37.65
2023-02-11T01:05:45.641Z,38.17
2023-02-11T01:08:34.628Z,35.85
2023-02-11T01:11:22.237Z,35.95
2023-02-11T01:14:09.568Z,36.25
2023-02-11T01:16:56.757Z,38.00
2023-02-11T01:19:43.864Z,36.97
2023-02-11T01:22:34.389Z,39.20
2023-02-11T01:25:21.541Z,41.80
2023-02-11T01:28:20.568Z,39.10
2023-02-11T01:31:07.824Z,38.78
2023-02-11T01:33:55.037Z,40.45
2023-02-11T01:36:44.312Z,40.85
2023-02-11T01:39:34.230Z,38.58
2023-02-11T01:42:23.378Z,38.72
2023-02-11T01:45:55.541Z,37.15
2023-02-11T01:48:46.996Z,36.90
2023-02-11T01:51:51.607Z,36.58
2023-02-11T01:55:02.657Z,35.05
2023-02-11T01:57:56.382Z,35.03
2023-02-11T02:00:44.053Z,34.63
2023-02-11T02:03:33.823Z,33.80
2023-02-11T02:06:32.449Z,33.85
2023-02-11T02:09:27.375Z,34.22
2023-02-11T02:12:14.552Z,34.28
2023-02-11T02:15:28.048Z,33.90
2023-02-11T02:18:30.130Z,32.60
2023-02-11T02:21:53.850Z,35.00
2023-02-11T02:24:50.147Z,33.83
2023-02-11T02:27:55.298Z,33.05
2023-02-11T02:31:12.671Z,33.45
2023-02-11T02:34:06.868Z,32.67
2023-02-11T02:37:25.671Z,35.63
2023-02-11T02:40:21.196Z,31.92
2023-02-11T02:43:10.777Z,35.75
2023-02-11T02:46:20.712Z,33.58
2023-02-11T02:49:14.060Z,33.95
2023-02-11T02:52:35.399Z,32.35
2023-02-11T02:55:37.381Z,31.77
2023-02-11T02:58:44.832Z,33.78
2023-02-11T03:02:04.915Z,33.08
2023-02-11T03:05:30.961Z,31.98
2023-02-11T03:08:23.179Z,31.17
2023-02-11T03:11:16.447Z,31.50
2023-02-11T03:14:06.728Z,31.88
2023-02-11T03:16:59.621Z,31.95
2023-02-11T03:19:52.918Z,33.33
2023-02-11T03:22:58.225Z,31.90
2023-02-11T03:25:58.829Z,36.60
2023-02-11T03:29:13.024Z,36.10
2023-02-11T03:32:39.372Z,32.88
2023-02-11T03:35:41.116Z,32.13
2023-02-11T03:38:47.134Z,30.55
2023-02-11T03:41:37.781Z,32.70
2023-02-11T03:44:31.045Z,31.30
2023-02-11T03:47:23.018Z,32.17
2023-02-11T03:50:14.830Z,33.67
2023-02-11T03:53:03.017Z,32.38
2023-02-11T03:55:54.514Z,31.52
2023-02-11T03:58:42.983Z,32.30
2023-02-11T04:01:30.709Z,29.35
2023-02-11T04:04:21.781Z,31.80
2023-02-11T04:07:12.198Z,31.25
2023-02-11T04:10:02.259Z,30.48
2023-02-11T04:12:49.686Z,31.33
2023-02-11T04:15:37.407Z,31.00
2023-02-11T04:18:27.704Z,31.40
2023-02-11T04:21:15.082Z,31.88
2023-02-11T04:24:02.534Z,32.47
2023-02-11T04:26:51.710Z,31.92
2023-02-11T04:29:38.918Z,33.70
2023-02-11T04:32:26.096Z,31.63
2023-02-11T04:35:13.677Z,32.20
2023-02-11T04:38:00.876Z,32.30
2023-02-11T04:40:48.233Z,31.83
2023-02-11T04:43:35.384Z,33.58
2023-02-11T04:46:22.832Z,33.70
2023-02-11T04:49:15.039Z,30.70
2023-02-11T04:52:05.152Z,31.30
2023-02-11T04:54:52.423Z,32.60
2023-02-11T04:57:39.765Z,32.05
2023-02-11T05:00:29.566Z,33.20
2023-02-11T05:03:29.914Z,30.42
2023-02-11T05:06:18.200Z,31.02
2023-02-11T05:09:05.823Z,31.48
2023-02-11T05:11:53.635Z,30.90
2023-02-11T05:14:41.683Z,31.83
2023-02-11T05:17:28.942Z,30.30
2023-02-11T05:20:17.572Z,31.85
2023-02-11T05:23:04.843Z,30.65
2023-02-11T05:25:52.418Z,31.48
2023-02-11T05:28:40.517Z,29.40
2023-02-11T05:31:30.205Z,30.17
2023-02-11T05:34:17.377Z,30.33
2023-02-11T05:37:17.718Z,30.23
2023-02-11T05:40:10.532Z,34.25
2023-02-11T05:42:57.608Z,32.10
2023-02-11T05:45:44.747Z,33.78
2023-02-11T05:48:32.470Z,30.58
2023-02-11T05:51:19.770Z,28.90
2023-02-11T05:54:08.372Z,26.52
2023-02-11T05:56:58.985Z,24.50
2023-02-11T05:59:46.334Z,25.08
2023-02-11T06:14:02.745Z,26.10
2023-02-11T06:17:27.068Z,27.65
2023-02-11T06:36:50.582Z,28.65
2023-02-11T06:40:29.119Z,28.90
2023-02-11T06:43:34.848Z,27.27
2023-02-11T06:51:20.581Z,27.48
2023-02-11T07:18:35.017Z,30.95
2023-02-11T07:21:22.817Z,30.73
2023-02-11T07:24:11.403Z,31.08
2023-02-11T07:26:58.783Z,29.75
2023-02-11T07:29:47.101Z,29.00
2023-02-11T07:32:34.303Z,32.30
2023-02-11T07:35:21.641Z,31.00
2023-02-11T07:38:14.888Z,31.55
2023-02-11T07:41:06.265Z,31.45
2023-02-11T07:43:53.681Z,31.02
2023-02-11T07:46:44.676Z,34.30
2023-02-11T07:49:34.016Z,34.47
2023-02-11T07:52:23.705Z,31.95
2023-02-11T07:55:11.705Z,32.35
2023-02-11T07:58:07.613Z,30.52
2023-02-11T08:00:54.871Z,31.33
2023-02-11T08:03:42.972Z,33.35
2023-02-11T08:06:35.193Z,34.65
2023-02-11T08:09:22.929Z,31.02
2023-02-11T08:12:10.168Z,29.85
2023-02-11T08:14:57.438Z,28.63
2023-02-11T08:17:47.662Z,24.83
2023-02-11T08:20:35.256Z,27.08
2023-02-11T08:23:22.470Z,24.42
2023-02-11T08:26:15.802Z,25.90
2023-02-11T08:29:14.470Z,22.33
2023-02-11T08:32:04.250Z,22.83
2023-02-11T08:34:53.113Z,23.95
2023-02-11T08:37:40.249Z,23.40
2023-02-11T08:40:30.517Z,23.38
2023-02-11T08:43:17.686Z,24.45
2023-02-11T08:46:05.965Z,23.55
2023-02-11T08:48:53.473Z,25.27
2023-02-11T08:51:41.152Z,23.50
2023-02-11T08:54:28.374Z,23.10
2023-02-11T08:57:17.818Z,23.15
2023-02-11T09:00:05.862Z,22.20
2023-02-11T09:02:58.179Z,24.55
2023-02-11T09:05:47.241Z,26.05
2023-02-11T09:08:36.469Z,24.23
2023-02-11T09:11:29.250Z,21.98
2023-02-11T09:14:21.463Z,23.40
2023-02-11T09:17:08.882Z,22.30
2023-02-11T09:19:58.643Z,20.95
2023-02-11T09:22:47.026Z,22.45
2023-02-11T09:25:34.326Z,22.33
2023-02-11T09:28:22.162Z,19.63
2023-02-11T09:31:11.884Z,19.08
2023-02-11T09:34:02.095Z,18.00
2023-02-11T09:36:49.414Z,17.80
2023-02-11T09:39:36.669Z,16.92
2023-02-11T09:42:53.911Z,18.58
2023-02-11T09:45:41.250Z,19.50
2023-02-11T09:48:40.322Z,19.17
2023-02-11T09:51:38.555Z,19.10
2023-02-11T09:54:37.617Z,19.58
2023-02-11T09:57:33.953Z,17.65
2023-02-11T10:00:23.117Z,16.13
2023-02-11T10:03:34.779Z,15.70
2023-02-11T10:07:00.770Z,13.20
2023-02-11T10:10:27.367Z,13.32
2023-02-11T10:13:48.494Z,13.75
2023-02-11T10:16:59.827Z,13.20
2023-02-11T10:20:16.952Z,12.75
2023-02-11T10:23:13.599Z,13.30
2023-02-11T10:26:01.231Z,14.38
2023-02-11T10:28:53.835Z,14.63
2023-02-11T10:34:33.898Z,14.35
2023-02-11T10:37:25.801Z,15.15
2023-02-11T10:40:18.701Z,13.48
2023-02-11T10:46:04.878Z,13.90
2023-02-11T10:48:57.052Z,13.90
2023-02-11T10:51:44.288Z,12.75
2023-02-11T10:54:31.483Z,11.68
2023-02-11T10:57:20.739Z,11.88
2023-02-11T11:00:28.872Z,12.77
2023-02-11T11:03:21.896Z,11.48
2023-02-11T11:06:12.755Z,13.18
2023-02-11T11:09:02.170Z,13.88
2023-02-11T11:11:53.862Z,11.77
2023-02-11T11:14:41.099Z,10.57
2023-02-11T11:17:29.406Z,10.98
2023-02-11T11:20:23.137Z,10.20
2023-02-11T11:23:24.438Z,9.60
2023-02-11T11:26:16.392Z,10.70
2023-02-11T11:29:13.583Z,9.45
2023-02-11T11:32:05.995Z,10.70
2023-02-11T11:34:56.095Z,9.43
2023-02-11T11:37:46.188Z,11.77
2023-02-11T11:40:35.243Z,9.23
2023-02-11T11:43:23.534Z,8.73
2023-02-11T11:46:12.285Z,9.18
2023-02-11T11:49:22.641Z,7.82
2023-02-11T11:52:18.873Z,7.45
2023-02-11T11:55:19.134Z,5.85
2023-02-11T11:58:17.335Z,8.00
2023-02-11T12:01:13.388Z,8.35
2023-02-11T12:04:04.857Z,7.60
2023-02-11T12:07:10.367Z,8.15
2023-02-11T12:10:22.631Z,7.45
2023-02-11T12:13:21.900Z,7.18
2023-02-11T12:16:21.125Z,8.27
2023-02-11T12:19:21.817Z,7.78
2023-02-11T12:22:41.458Z,7.97
2023-02-11T12:25:35.865Z,7.10
2023-02-11T12:28:55.323Z,7.28
2023-02-11T12:31:49.218Z,7.40
2023-02-11T12:34:42.742Z,7.78
2023-02-11T12:37:42.340Z,6.55
2023-02-11T12:40:53.950Z,6.80
2023-02-11T12:43:51.788Z,7.03
2023-02-11T12:46:47.753Z,7.05
2023-02-11T12:50:07.106Z,7.65
2023-02-11T12:53:18.185Z,7.43
2023-02-11T12:56:15.996Z,6.57
2023-02-11T12:59:14.232Z,6.18
2023-02-11T13:02:16.446Z,5.70
2023-02-11T13:05:17.189Z,5.15
2023-02-11T13:08:12.449Z,5.72
2023-02-11T13:11:07.937Z,5.53
2023-02-11T13:14:05.646Z,5.53
2023-02-11T13:16:58.434Z,5.45
2023-02-11T13:19:54.172Z,6.18
2023-02-11T13:22:57.273Z,5.55
2023-02-11T13:25:51.528Z,4.85
2023-02-11T13:28:56.235Z,5.00
2023-02-11T13:31:47.283Z,5.30
2023-02-11T13:34:43.918Z,4.90
2023-02-11T13:37:38.434Z,5.53
2023-02-11T13:40:32.280Z,5.07
2023-02-11T13:43:28.927Z,5.97
2023-02-11T13:46:17.221Z,5.93
2023-02-11T13:49:04.501Z,5.05
2023-02-11T13:51:53.142Z,5.10
2023-02-11T13:54:40.728Z,5.68
2023-02-11T13:57:30.716Z,5.70
2023-02-11T14:00:38.835Z,5.05
2023-02-11T14:03:56.338Z,4.97
2023-02-11T14:07:54.238Z,4.95
2023-02-11T14:10:41.439Z,4.55
2023-02-11T14:13:55.974Z,5.32
2023-02-11T14:17:07.812Z,5.22
2023-02-11T14:19:57.495Z,5.00
2023-02-11T14:22:52.697Z,6.18
2023-02-11T14:25:42.907Z,5.57
2023-02-11T14:28:34.559Z,5.97
2023-02-11T14:31:27.241Z,6.15
2023-02-11T14:34:17.201Z,6.18
2023-02-11T14:37:07.166Z,5.47
2023-02-11T14:40:03.211Z,5.80
2023-02-11T14:42:54.007Z,6.53
2023-02-11T14:45:44.948Z,6.72
2023-02-11T14:48:37.191Z,6.65
2023-02-11T14:51:40.805Z,7.60
2023-02-11T14:54:29.320Z,8.02
2023-02-11T14:57:23.923Z,8.32
2023-02-11T15:00:25.440Z,7.90
2023-02-11T15:03:25.054Z,8.90
2023-02-11T15:06:32.172Z,9.85
2023-02-11T15:09:24.169Z,10.23
2023-02-11T15:12:29.549Z,9.25
2023-02-11T15:15:17.158Z,9.57
2023-02-11T15:18:05.369Z,9.70
2023-02-11T15:20:53.345Z,9.95
2023-02-11T15:23:42.922Z,11.50
2023-02-11T15:26:33.305Z,10.82
2023-02-11T15:29:20.555Z,10.77
2023-02-11T15:32:18.347Z,11.23
2023-02-11T15:35:08.617Z,10.88
2023-02-11T15:38:01.509Z,10.63
2023-02-11T15:41:02.816Z,10.13
2023-02-11T15:43:59.212Z,10.10
2023-02-11T15:46:47.392Z,10.07
2023-02-11T15:49:34.727Z,10.45
2023-02-11T15:52:25.486Z,10.85
2023-02-11T15:55:18.724Z,10.77
2023-02-11T15:58:06.126Z,10.90
2023-02-11T16:01:00.034Z,11.02
2023-02-11T16:03:52.175Z,10.85
2023-02-11T16:06:42.073Z,10.82
2023-02-11T16:09:36.681Z,11.02
2023-02-11T16:12:28.128Z,11.95
2023-02-11T16:15:34.175Z,8.45
2023-02-11T16:18:38.664Z,12.45
2023-02-11T16:21:49.315Z,12.82
2023-02-11T16:24:38.919Z,12.93
2023-02-11T16:27:44.241Z,14.32
2023-02-11T16:30:40.542Z,13.82
2023-02-11T16:33:29.377Z,14.13
2023-02-11T16:36:17.454Z,14.82
2023-02-11T16:39:04.806Z,14.50
2023-02-11T16:41:52.545Z,15.65
2023-02-11T16:44:40.391Z,17.73
2023-02-11T16:47:29.090Z,17.30
2023-02-11T16:50:25.790Z,18.38
2023-02-11T16:53:25.569Z,19.50
2023-02-11T16:56:19.005Z,19.70
2023-02-11T16:59:06.542Z,20.13
2023-02-11T17:01:57.511Z,21.02
2023-02-11T17:04:47.672Z,20.70
2023-02-11T17:07:35.550Z,23.10
2023-02-11T17:10:25.417Z,21.23
2023-02-11T17:13:14.930Z,21.73
2023-02-11T17:16:02.516Z,22.10
2023-02-11T17:18:50.012Z,23.10
2023-02-11T17:21:37.130Z,24.08
2023-02-11T17:24:24.511Z,23.10
2023-02-11T17:27:12.265Z,22.08
2023-02-11T17:29:59.538Z,23.60
2023-02-11T17:32:47.606Z,23.05
2023-02-11T17:35:34.807Z,22.80
2023-02-11T17:38:22.205Z,22.33
2023-02-11T17:41:09.614Z,23.40
2023-02-11T17:44:10.010Z,26.55
2023-02-11T17:46:57.161Z,28.80
2023-02-11T17:49:44.348Z,25.52
2023-02-11T17:52:31.712Z,35.30
2023-02-11T17:55:19.052Z,34.13
2023-02-11T17:58:09.285Z,23.80
2023-02-11T18:00:58.866Z,24.83
2023-02-11T18:03:46.515Z,25.63
2023-02-11T18:06:36.420Z,24.05
2023-02-11T18:09:25.695Z,25.45
2023-02-11T18:12:12.963Z,23.67
2023-02-11T18:15:00.202Z,24.00
2023-02-11T18:17:47.575Z,23.05
2023-02-11T18:20:35.076Z,25.25
2023-02-11T18:23:24.590Z,23.92
2023-02-11T18:26:13.926Z,24.83
2023-02-11T18:29:01.217Z,24.23
2023-02-11T18:31:48.548Z,24.88
2023-02-11T18:34:35.780Z,24.50
2023-02-11T18:37:23.126Z,24.88
2023-02-11T18:40:16.629Z,26.25
2023-02-11T18:43:05.436Z,24.60
2023-02-11T18:45:52.975Z,24.40
2023-02-11T18:48:44.849Z,25.67
2023-02-11T18:51:32.827Z,25.17
2023-02-11T18:54:29.144Z,25.50
2023-02-11T18:57:18.669Z,27.77
2023-02-11T19:00:07.976Z,28.98
2023-02-11T19:02:55.694Z,27.33
2023-02-11T19:05:48.038Z,28.25
2023-02-11T19:08:35.504Z,26.90
2023-02-11T19:11:43.285Z,25.42
2023-02-11T19:14:34.275Z,25.15
2023-02-11T19:17:21.618Z,26.88
2023-02-11T19:20:09.273Z,28.58
2023-02-11T19:22:56.712Z,28.23
2023-02-11T19:25:49.625Z,28.90
2023-02-11T19:28:37.567Z,27.23
2023-02-11T19:31:24.973Z,25.90
2023-02-11T19:34:14.468Z,27.63
2023-02-11T19:37:01.822Z,43.00
2023-02-11T19:39:49.133Z,31.58
2023-02-11T19:42:36.730Z,24.77
2023-02-11T19:45:24.207Z,27.80
2023-02-11T19:48:22.025Z,27.38
2023-02-11T19:51:13.277Z,27.27
2023-02-11T19:54:00.866Z,29.90
2023-02-11T19:56:48.870Z,32.63
2023-02-11T19:59:36.044Z,38.30
2023-02-11T20:02:23.686Z,36.53
2023-02-11T20:05:14.364Z,41.28
2023-02-11T20:08:01.665Z,38.20
2023-02-11T20:10:49.059Z,39.85
2023-02-11T20:13:37.790Z,39.85
2023-02-11T20:16:44.747Z,37.45
2023-02-11T20:19:37.624Z,41.53
2023-02-11T20:22:27.859Z,42.05
2023-02-11T20:25:15.149Z,45.90
2023-02-11T20:28:02.820Z,46.53
2023-02-11T20:31:04.281Z,41.58
2023-02-11T20:33:56.586Z,39.47
2023-02-11T20:36:51.813Z,47.35
2023-02-11T20:39:42.068Z,40.50
2023-02-11T20:42:29.222Z,39.65
2023-02-11T20:45:18.266Z,39.05
2023-02-11T20:48:05.549Z,37.83
2023-02-11T20:50:53.031Z,38.00
2023-02-11T20:53:44.223Z,37.97
2023-02-11T20:56:36.799Z,41.97
2023-02-11T20:59:24.749Z,39.75
2023-02-11T21:02:13.257Z,40.53
2023-02-11T21:05:00.744Z,39.25
2023-02-11T21:07:50.323Z,37.65
2023-02-11T21:10:39.800Z,37.50
2023-02-11T21:13:27.509Z,49.55
2023-02-11T21:16:17.512Z,48.00
2023-02-11T21:19:05.447Z,47.72
2023-02-11T21:21:54.856Z,43.15
2023-02-11T21:24:42.016Z,44.35
2023-02-11T21:27:33.189Z,39.50
2023-02-11T21:30:20.403Z,38.70
2023-02-11T21:33:07.860Z,33.88
2023-02-11T21:36:00.485Z,35.88
2023-02-11T21:38:51.236Z,35.58
2023-02-11T21:41:38.682Z,35.72
2023-02-11T21:44:26.753Z,35.58
2023-02-11T21:47:14.054Z,36.75
2023-02-11T21:50:04.145Z,35.17
2023-02-11T21:52:51.480Z,33.05
2023-02-11T21:55:42.367Z,32.22
2023-02-11T21:58:32.292Z,31.65
2023-02-11T22:01:23.309Z,32.30
2023-02-11T22:04:10.930Z,32.85
2023-02-11T22:07:05.722Z,33.53
2023-02-11T22:10:00.173Z,49.35
2023-02-11T22:12:49.556Z,48.42
2023-02-11T22:15:36.906Z,44.92
2023-02-11T22:18:30.171Z,38.45
2023-02-11T22:21:23.976Z,36.70
2023-02-11T22:24:11.217Z,35.00
2023-02-11T22:26:58.581Z,36.72
2023-02-11T22:29:46.601Z,36.15
2023-02-11T22:32:33.792Z,33.50
2023-02-11T22:35:20.964Z,34.75
2023-02-11T22:38:10.746Z,34.50
2023-02-11T22:40:58.897Z,33.88
2023-02-11T22:43:46.401Z,35.65
2023-02-11T22:46:36.685Z,39.17
2023-02-11T22:49:24.212Z,37.13
2023-02-11T22:52:11.467Z,33.65
2023-02-11T22:55:00.426Z,36.10
2023-02-11T22:57:47.786Z,36.75
2023-02-11T23:00:40.766Z,40.13
2023-02-11T23:03:28.657Z,40.17
2023-02-11T23:06:15.977Z,39.00
2023-02-11T23:09:05.523Z,44.00
2023-02-11T23:11:55.929Z,42.15
2023-02-11T23:14:43.254Z,41.58
2023-02-11T23:17:33.556Z,37.55
2023-02-11T23:20:20.786Z,36.85
2023-02-11T23:23:08.336Z,35.90
2023-02-11T23:25:55.823Z,35.00
2023-02-11T23:28:49.830Z,37.28
2023-02-11T23:31:40.366Z,35.60
2023-02-11T23:34:29.915Z,35.80
2023-02-11T23:37:19.773Z,34.03
2023-02-11T23:40:07.638Z,35.55
2023-02-11T23:42:54.963Z,36.10
2023-02-11T23:45:42.188Z,36.33
2023-02-11T23:48:29.490Z,37.95
2023-02-11T23:51:17.518Z,40.13
2023-02-11T23:54:04.816Z,37.00
2023-02-11T23:56:51.942Z,36.10
2023-02-11T23:59:39.293Z,36.20
